Time;durP1;ratioP1;P1;durP2;ratioP2;P2;SDS_P1;SDS_P2;PMS_P1;PMS_P2;Temp;Humidity;BMP_temperature;BMP_pressure;BME280_temperature;BME280_humidity;BME280_pressure;Samples;Min_cycle;Max_cycle;Signal;HPM_P1;HPM_P2
2022/12/08 00:00:26;;;;;;;41.10;20.45;;;;;;;-1.86;61.49;101034.29;1796034;80;21205;-59
2022/12/08 00:04:15;;;;;;;40.00;19.45;;;;;;;-1.83;61.66;101035.00;1785535;80;21232;-60
2022/12/08 00:12:00;;;;;;;36.15;18.75;;;;;;;-1.73;61.78;101020.61;1787097;80;21189;-57
2022/12/08 00:15:25;;;;;;;42.58;19.73;;;;;;;-1.70;61.88;101019.95;1790197;80;21189;-58
2022/12/08 00:19:04;;;;;;;37.13;19.73;;;;;;;-1.71;61.82;101027.62;1795640;80;21394;-58
2022/12/08 00:22:21;;;;;;;35.43;18.40;;;;;;;-1.65;61.99;101017.04;1876000;76;22238;-57
2022/12/08 00:26:03;;;;;;;32.03;16.27;;;;;;;-1.66;62.02;101027.36;1791700;79;21208;-57
2022/12/08 00:29:42;;;;;;;37.50;19.95;;;;;;;-1.67;61.97;101017.59;1791262;79;21413;-57
2022/12/08 00:33:05;;;;;;;40.88;19.80;;;;;;;-1.65;62.03;101021.06;1808689;78;21713;-57
2022/12/08 00:36:33;;;;;;;35.20;18.20;;;;;;;-1.63;62.05;101020.02;1726527;82;21263;-59
2022/12/08 00:40:27;;;;;;;38.45;19.30;;;;;;;-1.61;62.13;101015.91;1777863;79;21264;-59
2022/12/08 00:44:09;;;;;;;32.10;17.30;;;;;;;-1.63;62.10;101009.75;1797537;79;21224;-59
2022/12/08 00:47:42;;;;;;;39.35;19.27;;;;;;;-1.59;62.28;101031.46;1800177;79;21450;-60
2022/12/08 00:51:10;;;;;;;35.35;18.07;;;;;;;-1.49;62.38;101039.38;1657322;85;21380;-59
2022/12/08 00:55:03;;;;;;;35.20;19.02;;;;;;;-1.43;62.40;101042.22;1738665;79;21207;-60
2022/12/08 00:58:38;;;;;;;35.95;17.12;;;;;;;-1.39;62.41;101040.62;1754075;80;21200;-59
2022/12/08 01:02:13;;;;;;;33.08;18.05;;;;;;;-1.36;62.38;101038.26;1755226;81;21318;-59
2022/12/08 01:05:52;;;;;;;35.75;19.32;;;;;;;-1.38;62.41;101037.47;1754661;81;21653;-60
2022/12/08 01:09:26;;;;;;;36.00;18.17;;;;;;;-1.41;62.37;101025.56;1721688;82;21231;-59
2022/12/08 01:13:02;;;;;;;37.13;18.90;;;;;;;-1.44;62.39;101038.66;1753278;80;21393;-59
2022/12/08 01:16:40;;;;;;;36.98;18.40;;;;;;;-1.49;62.32;101039.88;1722305;81;21231;-59
2022/12/08 01:19:58;;;;;;;34.65;18.65;;;;;;;-1.48;62.42;101034.89;1833915;76;22288;-59
2022/12/08 01:23:26;;;;;;;40.23;19.55;;;;;;;-1.46;62.59;101023.13;1852115;76;22317;-60
2022/12/08 01:27:02;;;;;;;33.53;18.02;;;;;;;-1.48;62.60;101028.18;1772204;79;21201;-60
2022/12/08 01:30:39;;;;;;;30.92;17.10;;;;;;;-1.48;62.65;101024.16;1768584;79;21821;-59
2022/12/08 01:34:11;;;;;;;33.98;18.20;;;;;;;-1.44;62.70;101019.87;1773469;79;21209;-59
2022/12/08 01:38:04;;;;;;;33.63;16.60;;;;;;;-1.41;62.73;101035.80;1764040;80;21185;-60
2022/12/08 01:41:29;;;;;;;31.07;16.60;;;;;;;-1.37;62.85;101023.95;1734491;82;21378;-59
2022/12/08 01:45:15;;;;;;;32.20;18.70;;;;;;;-1.25;62.97;101034.50;1852499;76;22341;-59
2022/12/08 01:52:50;;;;;;;28.95;16.27;;;;;;;-1.23;63.02;101043.31;1809310;79;21203;-60
2022/12/08 02:04:00;;;;;;;36.83;19.10;;;;;;;-1.19;63.12;101035.49;1790559;79;21718;-59
2022/12/08 02:07:24;;;;;;;32.23;17.23;;;;;;;-1.18;63.08;101038.55;1804477;79;21436;-59
2022/12/08 02:10:51;;;;;;;30.60;17.77;;;;;;;-1.18;63.14;101051.98;1791476;78;21232;-59
2022/12/08 02:14:48;;;;;;;30.05;16.50;;;;;;;-1.15;63.18;101041.06;1811271;78;22026;-59
2022/12/08 02:19:01;;;;;;;30.72;16.10;;;;;;;-1.11;63.24;101040.80;1798061;78;21362;-59
2022/12/08 02:22:58;;;;;;;29.80;15.45;;;;;;;-0.97;63.42;101036.02;1876947;76;22195;-59
2022/12/08 02:27:04;;;;;;;30.88;17.70;;;;;;;-0.97;63.43;101036.02;1789146;77;21366;-59
2022/12/08 02:31:03;;;;;;;26.80;15.60;;;;;;;-0.93;63.38;101037.09;1747091;81;21336;-59
2022/12/08 02:34:50;;;;;;;28.98;15.85;;;;;;;-0.88;63.45;101047.10;1751994;81;22089;-59
2022/12/08 02:38:38;;;;;;;34.73;16.42;;;;;;;-0.83;63.42;101049.05;1764669;81;21702;-59
2022/12/08 02:42:26;;;;;;;27.22;15.60;;;;;;;-0.82;63.33;101055.27;1748925;81;21193;-61
2022/12/08 02:46:21;;;;;;;24.65;15.48;;;;;;;-0.86;63.32;101045.20;1773396;80;21240;-58
2022/12/08 02:53:45;;;;;;;24.80;13.50;;;;;;;-0.81;63.59;101045.77;1834328;77;21243;-60
2022/12/08 02:57:41;;;;;;;27.73;15.23;;;;;;;-0.78;63.57;101057.72;1765324;81;21181;-60
2022/12/08 03:02:03;;;;;;;26.82;15.30;;;;;;;-0.79;63.53;101057.78;1753764;81;21230;-60
2022/12/08 03:06:08;;;;;;;27.62;14.30;;;;;;;-0.81;63.56;101051.65;1758754;81;21698;-58
2022/12/08 03:09:48;;;;;;;24.52;13.83;;;;;;;-0.80;63.70;101051.56;1716852;81;21811;-59
2022/12/08 03:13:43;;;;;;;28.27;14.85;;;;;;;-0.72;63.84;101062.73;1704668;82;21350;-59
2022/12/08 03:17:13;;;;;;;25.12;14.30;;;;;;;-0.60;63.83;101058.45;1857742;76;22163;-58
2022/12/08 03:24:52;;;;;;;27.10;14.28;;;;;;;-0.55;63.81;101065.31;1852554;75;22257;-59
2022/12/08 03:28:45;;;;;;;24.27;14.30;;;;;;;-0.55;63.84;101077.87;1795759;77;21271;-60
2022/12/08 03:32:41;;;;;;;27.62;14.20;;;;;;;-0.55;63.79;101067.13;1782188;77;21199;-59
2022/12/08 03:36:20;;;;;;;27.17;13.48;;;;;;;-0.52;63.92;101062.44;1805791;78;21670;-60
2022/12/08 03:40:20;;;;;;;23.57;13.65;;;;;;;-0.51;63.83;101061.47;1790232;79;21208;-59
2022/12/08 03:43:57;;;;;;;22.98;13.72;;;;;;;-0.51;63.93;101068.20;1806329;78;21191;-59
2022/12/08 03:47:28;;;;;;;22.70;12.13;;;;;;;-0.42;64.04;101062.30;1884592;76;22672;-59
2022/12/08 03:51:09;;;;;;;;;;;;;;;-0.45;64.09;101066.98;1818351;78;21163;-59
2022/12/08 03:54:35;;;;;;;22.82;11.78;;;;;;;-0.43;64.17;101052.48;1793616;79;20194;-59
2022/12/08 03:58:15;;;;;;;22.82;13.08;;;;;;;-0.38;64.24;101057.62;1781292;78;21392;-59
2022/12/08 04:02:06;;;;;;;19.75;12.53;;;;;;;-0.36;64.27;101068.66;1772691;80;21871;-60
2022/12/08 04:05:43;;;;;;;23.50;13.08;;;;;;;-0.31;64.32;101073.77;1789451;78;21239;-58
2022/12/08 04:09:13;;;;;;;21.05;12.30;;;;;;;-0.31;64.26;101082.70;1773520;80;21870;-58
2022/12/08 04:12:38;;;;;;;20.75;12.55;;;;;;;-0.28;64.31;101088.37;1721465;81;21201;-58
2022/12/08 04:16:23;;;;;;;23.05;11.60;;;;;;;-0.28;64.29;101075.80;1724393;82;21406;-58
2022/12/08 04:20:22;;;;;;;18.15;10.93;;;;;;;-0.22;64.42;101067.83;1731293;80;21383;-58
2022/12/08 04:24:10;;;;;;;19.20;11.22;;;;;;;-0.20;64.44;101065.92;1751041;81;21205;-57
2022/12/08 04:28:03;;;;;;;17.95;11.10;;;;;;;-0.21;64.44;101063.70;1809719;78;21254;-59
2022/12/08 04:35:35;;;;;;;16.90;10.40;;;;;;;-0.17;64.53;101056.31;1704001;80;21226;-59
2022/12/08 04:39:25;;;;;;;19.60;11.85;;;;;;;-0.16;64.57;101065.64;1710323;82;21625;-58
2022/12/08 04:43:40;;;;;;;21.00;11.95;;;;;;;-0.17;64.50;101060.35;1695139;83;21687;-58
2022/12/08 04:47:06;;;;;;;21.70;11.95;;;;;;;-0.10;64.60;101061.73;1883639;75;22183;-58
2022/12/08 04:55:06;;;;;;;20.23;11.97;;;;;;;-0.03;64.72;101063.08;1904430;75;22231;-57
2022/12/08 05:02:52;;;;;;;22.82;12.10;;;;;;;-0.06;64.78;101072.22;1804226;78;21149;-59
2022/12/08 05:21:52;;;;;;;19.20;12.60;;;;;;;0.17;64.96;101065.45;1737401;79;22319;-58
2022/12/08 05:25:38;;;;;;;20.27;12.28;;;;;;;0.08;64.98;101072.71;1709909;84;21323;-57
2022/12/08 05:51:16;;;;;;;22.95;13.20;;;;;;;0.39;65.14;101096.82;1856115;76;20597;-57
2022/12/08 05:54:33;;;;;;;18.82;11.85;;;;;;;0.34;65.14;101101.62;1718126;82;21257;-59
2022/12/08 05:58:05;;;;;;;21.15;12.65;;;;;;;0.35;65.22;101108.72;1763185;80;21217;-57
2022/12/08 06:01:52;;;;;;;23.95;15.10;;;;;;;0.40;65.32;101105.77;1704139;82;21271;-59
2022/12/08 06:05:35;;;;;;;27.02;13.55;;;;;;;0.41;65.40;101104.34;1763228;79;21719;-59
2022/12/08 06:13:16;;;;;;;23.02;13.00;;;;;;;0.53;65.40;101103.56;1766314;80;21260;-57
2022/12/08 06:17:25;;;;;;;25.95;14.28;;;;;;;0.53;65.28;101106.73;1754086;80;21242;-58
2022/12/08 06:20:41;;;;;;;24.35;14.15;;;;;;;0.55;65.27;101111.55;1708249;82;21606;-58
2022/12/08 06:24:27;;;;;;;26.37;15.63;;;;;;;0.61;65.33;101110.69;1717814;82;21508;-59
2022/12/08 06:38:23;;;;;;;21.73;13.58;;;;;;;0.81;65.36;101127.81;1826294;76;22679;-59
2022/12/08 06:45:59;;;;;;;24.95;13.90;;;;;;;0.88;65.53;101130.52;1698176;83;21227;-59
2022/12/08 06:49:21;;;;;;;23.83;13.90;;;;;;;0.90;65.42;101135.34;1675348;83;21299;-57
2022/12/08 06:52:58;;;;;;;25.27;14.50;;;;;;;0.98;65.49;101136.20;1855295;76;22174;-57
2022/12/08 06:56:30;;;;;;;28.80;13.78;;;;;;;0.96;65.55;101135.42;1705587;83;21216;-58
2022/12/08 07:00:08;;;;;;;26.40;13.62;;;;;;;0.99;65.57;101146.01;1761564;80;21185;-57
2022/12/08 07:03:47;;;;;;;25.90;14.10;;;;;;;0.98;65.58;101144.28;1747660;81;21229;-58
2022/12/08 07:11:31;;;;;;;25.30;14.38;;;;;;;0.97;65.50;101154.19;1769495;79;21240;-58
2022/12/08 07:15:05;;;;;;;;;;;;;;;0.96;65.52;101168.64;1773369;79;21256;-58
2022/12/08 07:18:48;;;;;;;30.32;17.00;;;;;;;0.99;65.58;101167.10;1756993;80;20174;-58
2022/12/08 07:22:49;;;;;;;29.25;16.97;;;;;;;1.00;65.61;101167.47;1770502;80;21160;-62
2022/12/08 07:29:56;;;;;;;26.17;14.68;;;;;;;1.05;65.75;101172.56;1737492;81;21757;-62
2022/12/08 07:33:40;;;;;;;34.25;17.95;;;;;;;1.05;65.69;101172.09;1735396;82;21591;-62
2022/12/08 07:36:59;;;;;;;30.35;16.17;;;;;;;1.08;65.68;101175.95;1737352;81;21244;-62
2022/12/08 07:40:14;;;;;;;26.17;15.63;;;;;;;1.07;65.68;101171.53;1757927;79;21200;-63
2022/12/08 07:43:34;;;;;;;27.20;15.78;;;;;;;1.11;65.83;101166.31;1736723;81;21225;-61
2022/12/08 07:47:14;;;;;;;22.90;13.62;;;;;;;1.17;65.87;101173.16;1707040;82;21200;-61
2022/12/08 07:50:35;;;;;;;28.23;15.80;;;;;;;1.20;65.82;101168.45;1712492;82;21394;-62
2022/12/08 07:53:59;;;;;;;26.62;16.20;;;;;;;1.26;65.78;101173.45;1687267;83;21626;-62
2022/12/08 07:57:24;;;;;;;27.55;15.75;;;;;;;1.36;65.96;101177.27;1769801;80;21216;-61
2022/12/08 08:00:50;;;;;;;24.45;14.47;;;;;;;1.46;65.87;101180.23;1722432;82;21233;-61
2022/12/08 08:04:13;;;;;;;28.45;15.98;;;;;;;1.59;65.85;101169.04;1851591;76;22289;-61
2022/12/08 08:07:35;;;;;;;32.83;16.32;;;;;;;1.60;65.91;101168.56;1793182;78;21169;-62
2022/12/08 08:10:54;;;;;;;26.60;15.85;;;;;;;1.65;65.86;101163.74;1790241;78;21743;-58
2022/12/08 08:14:33;;;;;;;28.35;16.02;;;;;;;1.69;65.89;101166.61;1788026;78;21224;-58
2022/12/08 08:18:59;;;;;;;27.60;17.37;;;;;;;1.71;65.82;101160.63;1778110;79;21383;-58
2022/12/08 08:22:20;;;;;;;26.37;15.88;;;;;;;1.79;65.86;101159.65;1705896;82;21243;-58
2022/12/08 08:25:53;;;;;;;31.25;16.73;;;;;;;1.83;65.78;101162.52;1679945;84;21693;-58
2022/12/08 08:29:26;;;;;;;33.83;17.35;;;;;;;1.78;65.66;101156.08;1679510;84;21220;-61
2022/12/08 08:43:28;;;;;;;34.33;17.12;;;;;;;2.00;65.98;101140.17;1798073;79;22923;-61
2022/12/08 08:46:56;;;;;;;30.77;17.10;;;;;;;2.01;66.01;101142.40;1737339;82;21220;-57
2022/12/08 08:50:33;;;;;;;37.30;18.35;;;;;;;2.05;65.93;101152.01;1715339;81;21362;-58
2022/12/08 08:53:54;;;;;;;30.05;16.80;;;;;;;2.14;65.99;101141.96;1725437;82;21363;-57
2022/12/08 08:57:23;;;;;;;34.35;17.07;;;;;;;2.15;66.00;101146.38;1733821;82;21217;-58
2022/12/08 09:00:41;;;;;;;32.98;18.98;;;;;;;2.18;66.01;101147.52;1724086;82;21848;-59
2022/12/08 09:04:03;;;;;;;35.35;18.92;;;;;;;2.26;66.10;101143.34;1740136;81;21256;-59
2022/12/08 09:07:18;;;;;;;35.80;20.17;;;;;;;2.26;65.91;101141.11;1669796;83;21396;-57
2022/12/08 09:10:42;;;;;;;35.60;18.55;;;;;;;2.16;65.93;101146.75;1722522;82;21223;-62
2022/12/08 09:14:28;;;;;;;35.25;17.98;;;;;;;2.12;65.96;101146.12;1737483;82;21355;-59
2022/12/08 09:17:59;;;;;;;36.25;17.30;;;;;;;2.03;65.96;101142.66;1740702;82;21939;-58
2022/12/08 09:21:30;;;;;;;29.98;16.65;;;;;;;1.91;66.04;101147.55;1726907;82;21216;-57
2022/12/08 09:24:50;;;;;;;33.48;17.90;;;;;;;1.90;66.24;101147.18;1704296;80;21224;-60
2022/12/08 09:28:20;;;;;;;39.88;20.57;;;;;;;1.99;66.48;101153.78;1691353;82;21554;-61
2022/12/08 09:32:00;;;;;;;35.43;21.05;;;;;;;2.13;66.59;101151.01;1728894;81;21298;-62
2022/12/08 09:35:29;;;;;;;39.70;24.23;;;;;;;2.32;66.55;101151.02;1816836;76;28333;-61
2022/12/08 09:38:50;;;;;;;;;;;;;;;2.37;66.37;101146.17;1782486;79;21213;-61
2022/12/08 09:42:33;;;;;;;38.67;19.65;;;;;;;2.37;66.13;101147.99;1799551;79;20220;-61
2022/12/08 09:50:28;;;;;;;41.45;20.12;;;;;;;2.37;66.26;101146.17;1687142;82;21321;-60
2022/12/08 09:53:55;;;;;;;36.93;18.87;;;;;;;2.54;66.48;101143.16;1705983;83;21304;-60
2022/12/08 09:57:18;;;;;;;36.17;19.32;;;;;;;2.62;66.54;101141.27;1675336;84;21332;-60
2022/12/08 10:00:42;;;;;;;35.20;20.35;;;;;;;2.57;66.27;101142.09;1663280;84;21221;-60
2022/12/08 10:04:11;;;;;;;33.25;17.57;;;;;;;2.60;66.54;101141.88;1700777;82;21253;-62
2022/12/08 10:07:47;;;;;;;32.45;17.00;;;;;;;2.68;66.58;101139.51;1700015;84;21777;-60
2022/12/08 10:11:10;;;;;;;34.25;18.17;;;;;;;2.69;66.50;101139.41;1676039;85;21876;-60
2022/12/08 10:14:47;;;;;;;34.43;18.07;;;;;;;2.71;66.47;101132.53;1702000;82;21808;-60
2022/12/08 10:18:17;;;;;;;36.68;19.48;;;;;;;2.73;66.51;101135.97;1702557;82;21275;-62
2022/12/08 10:21:30;;;;;;;33.80;18.32;;;;;;;2.75;66.44;101134.03;1686348;84;21267;-61
2022/12/08 10:24:46;;;;;;;30.17;17.10;;;;;;;2.72;66.43;101132.42;1704972;84;21311;-62
2022/12/08 10:28:05;;;;;;;28.67;15.88;;;;;;;2.74;66.40;101136.37;1704852;82;21217;-60
2022/12/08 10:31:36;;;;;;;28.95;16.73;;;;;;;2.76;66.47;101136.62;1689843;84;21228;-62
2022/12/08 10:35:15;;;;;;;29.30;16.67;;;;;;;2.81;66.50;101137.65;1705617;84;22203;-61
2022/12/08 10:38:46;;;;;;;34.90;19.05;;;;;;;2.87;66.60;101131.83;1703928;82;21225;-59
2022/12/08 10:42:27;;;;;;;25.88;14.50;;;;;;;2.88;66.48;101128.14;1733266;80;22152;-61
2022/12/08 10:46:06;;;;;;;28.52;17.00;;;;;;;2.84;66.54;101141.01;1676998;83;21280;-59
2022/12/08 10:49:37;;;;;;;35.23;19.42;;;;;;;2.84;66.62;101134.72;1749520;79;21628;-60
2022/12/08 10:52:52;;;;;;;36.03;19.60;;;;;;;2.91;66.75;101144.14;1705727;82;21258;-60
2022/12/08 10:56:19;;;;;;;32.80;19.75;;;;;;;2.93;66.75;101139.50;1682044;84;21224;-59
2022/12/08 10:59:58;;;;;;;33.40;18.45;;;;;;;2.90;66.63;101146.48;1678268;84;21281;-56
2022/12/08 11:03:40;;;;;;;32.25;18.05;;;;;;;2.87;66.67;101147.55;1714306;82;21299;-55
2022/12/08 11:07:20;;;;;;;32.93;18.95;;;;;;;2.89;66.79;101137.97;1707832;82;21208;-55
2022/12/08 11:10:46;;;;;;;30.15;17.27;;;;;;;2.93;66.82;101139.50;1705363;81;21485;-57
2022/12/08 11:14:11;;;;;;;29.00;16.55;;;;;;;2.95;66.86;101138.88;1732207;82;21266;-55
2022/12/08 11:17:50;;;;;;;29.75;16.85;;;;;;;2.99;66.95;101130.95;1668613;84;21231;-57
2022/12/08 11:22:03;;;;;;;33.05;21.52;;;;;;;3.08;66.86;101129.44;1768262;76;28173;-62
2022/12/08 11:29:32;;;;;;;28.25;16.00;;;;;;;3.08;66.69;101134.33;1736161;79;21612;-60
2022/12/08 11:33:35;;;;;;;27.70;15.60;;;;;;;3.09;66.77;101119.86;1821140;76;22259;-61
2022/12/08 11:36:49;;;;;;;24.57;15.30;;;;;;;3.03;66.73;101127.03;1766060;78;21830;-62
2022/12/08 11:51:17;;;;;;;26.37;15.88;;;;;;;3.06;67.03;101119.57;1692924;83;20220;-57
2022/12/08 11:54:54;;;;;;;28.20;16.27;;;;;;;3.00;67.00;101113.26;1693018;82;21861;-57
2022/12/08 11:58:55;;;;;;;24.23;14.07;;;;;;;2.93;67.10;101117.36;1684330;81;21298;-57
2022/12/08 12:02:10;;;;;;;26.25;15.32;;;;;;;2.91;67.16;101111.22;1693521;84;21229;-57
2022/12/08 12:05:49;;;;;;;23.70;13.25;;;;;;;2.91;67.29;101117.11;1679343;83;21882;-57
2022/12/08 12:09:35;;;;;;;22.13;13.32;;;;;;;2.88;67.31;101112.80;1688000;83;21255;-56
2022/12/08 12:13:29;;;;;;;22.27;13.35;;;;;;;2.79;67.30;101119.34;1716739;81;21229;-58
2022/12/08 12:17:10;;;;;;;29.72;16.12;;;;;;;2.79;67.52;101116.64;1637800;81;21847;-57
2022/12/08 12:20:50;;;;;;;26.97;14.00;;;;;;;2.79;67.53;101112.59;1646173;85;21227;-57
2022/12/08 12:24:25;;;;;;;24.40;13.68;;;;;;;2.75;67.54;101117.34;1677581;80;21273;-57
2022/12/08 12:28:17;;;;;;;22.70;12.65;;;;;;;2.74;67.60;101116.09;1658166;78;21261;-58
2022/12/08 12:31:54;;;;;;;23.30;13.70;;;;;;;2.69;67.64;101111.02;1621471;82;21276;-59
2022/12/08 12:35:55;;;;;;;25.60;13.80;;;;;;;2.67;67.64;101102.63;1698276;80;21574;-60
2022/12/08 12:39:20;;;;;;;32.93;17.57;;;;;;;2.65;67.90;101102.73;1691790;81;21792;-61
2022/12/08 12:42:58;;;;;;;22.30;13.08;;;;;;;2.70;68.08;101114.09;1703198;80;21827;-61
2022/12/08 12:46:48;;;;;;;20.65;12.85;;;;;;;2.73;68.07;101115.70;1689640;81;21244;-60
2022/12/08 12:54:37;;;;;;;32.28;18.42;;;;;;;2.79;68.15;101116.64;1713353;81;21225;-62
2022/12/08 12:58:03;;;;;;;23.75;15.03;;;;;;;2.81;68.15;101107.44;1667758;82;21254;-58
2022/12/08 13:01:45;;;;;;;24.32;15.20;;;;;;;2.86;68.34;101098.52;1692591;83;21262;-57
2022/12/08 13:05:45;;;;;;;20.72;12.13;;;;;;;2.93;68.37;101101.65;1704468;81;21220;-57
2022/12/08 13:13:45;;;;;;;25.20;13.45;;;;;;;2.87;68.13;101113.75;1727147;79;21273;-57
2022/12/08 13:17:06;;;;;;;19.07;11.95;;;;;;;2.84;68.15;101109.04;1853572;76;23121;-58
2022/12/08 13:24:44;;;;;;;22.75;13.90;;;;;;;2.77;68.45;101127.56;1772702;79;21566;-60
2022/12/08 13:28:26;;;;;;;27.35;14.40;;;;;;;2.81;68.53;101133.59;1762365;81;21240;-60
2022/12/08 13:32:07;;;;;;;24.92;13.28;;;;;;;2.77;68.54;101126.69;1742364;80;21201;-60
2022/12/08 13:35:38;;;;;;;34.95;19.15;;;;;;;2.78;68.71;101125.23;1723216;82;21193;-60
2022/12/08 13:39:00;;;;;;;34.48;21.17;;;;;;;2.82;68.80;101132.64;1695445;83;21237;-61
2022/12/08 13:42:36;;;;;;;31.23;17.32;;;;;;;2.83;68.87;101134.36;1700470;83;21185;-58
2022/12/08 13:46:18;;;;;;;23.62;14.15;;;;;;;2.85;68.90;101144.59;1699917;82;21246;-57
2022/12/08 13:49:49;;;;;;;22.35;13.45;;;;;;;2.90;68.81;101143.78;1822003;76;22250;-56
2022/12/08 13:53:22;;;;;;;23.10;13.13;;;;;;;2.79;68.81;101142.33;1748737;80;21740;-56
2022/12/08 14:10:39;;;;;;;22.45;13.03;;;;;;;2.81;68.93;101149.81;1626394;83;21271;-56
2022/12/08 14:14:12;;;;;;;21.48;12.98;;;;;;;2.74;68.94;101128.27;1594630;87;21284;-57
2022/12/08 14:18:06;;;;;;;21.20;11.45;;;;;;;2.68;69.00;101126.00;1609977;88;21272;-57
2022/12/08 14:21:44;;;;;;;20.37;11.73;;;;;;;2.66;69.05;101136.05;1599869;87;21511;-56
2022/12/08 14:25:09;;;;;;;21.95;11.88;;;;;;;2.71;69.12;101121.72;1842391;76;23150;-57
2022/12/08 14:28:48;;;;;;;17.67;11.03;;;;;;;2.64;69.14;101125.81;1781005;79;21212;-56
2022/12/08 14:32:33;;;;;;;18.82;11.12;;;;;;;2.64;69.27;101137.50;1744523;79;21216;-60
2022/12/08 14:36:08;;;;;;;21.25;12.07;;;;;;;2.68;69.37;101140.86;1799968;79;21263;-61
2022/12/08 14:39:42;;;;;;;20.35;11.53;;;;;;;2.73;69.48;101148.13;1739010;79;21230;-60
2022/12/08 14:43:03;;;;;;;29.90;15.43;;;;;;;2.70;69.42;101148.36;1684221;84;21253;-60
2022/12/08 14:46:55;;;;;;;25.48;13.35;;;;;;;2.68;69.41;101157.92;1710260;83;21240;-60
2022/12/08 14:51:27;;;;;;;22.65;12.30;;;;;;;2.66;69.31;101154.96;1695028;82;21555;-57
2022/12/08 14:55:00;;;;;;;19.85;12.30;;;;;;;2.64;69.39;101150.14;1700389;83;21974;-61
2022/12/08 14:58:34;;;;;;;23.22;13.50;;;;;;;2.62;69.31;101133.16;1874706;76;22304;-60
2022/12/08 15:02:09;;;;;;;19.37;11.30;;;;;;;2.55;69.42;101123.77;1777323;80;21782;-55
2022/12/08 15:05:42;;;;;;;20.15;11.83;;;;;;;2.55;69.45;101134.06;1670167;80;21307;-55
2022/12/08 15:09:14;;;;;;;18.80;11.33;;;;;;;2.53;69.49;101139.21;1668023;80;21296;-56
2022/12/08 15:16:12;;;;;;;20.25;13.25;;;;;;;2.50;69.52;101144.83;1689644;83;21620;-56
2022/12/08 15:19:41;;;;;;;19.67;12.85;;;;;;;2.61;69.78;101130.97;1856345;76;22645;-56
2022/12/08 15:23:12;;;;;;;15.95;10.48;;;;;;;2.59;69.86;101126.14;1802719;78;21571;-56
2022/12/08 15:30:54;;;;;;;14.90;9.55;;;;;;;2.65;69.88;101109.48;1801199;79;21216;-60
2022/12/08 15:34:56;;;;;;;19.42;10.95;;;;;;;2.64;69.94;101111.83;1822680;77;21238;-57
2022/12/08 15:38:49;;;;;;;18.50;10.95;;;;;;;2.69;69.98;101117.78;1779657;79;21195;-57
2022/12/08 15:42:22;;;;;;;16.93;10.53;;;;;;;2.73;70.05;101127.86;1760554;81;21271;-60
2022/12/08 15:46:04;;;;;;;15.70;10.10;;;;;;;2.74;70.09;101125.05;1693020;84;21235;-59
2022/12/08 15:49:42;;;;;;;16.45;10.55;;;;;;;2.76;70.09;101127.64;1686449;83;21267;-60
2022/12/08 15:53:31;;;;;;;18.23;10.95;;;;;;;2.76;70.01;101128.52;1687245;84;21310;-60
2022/12/08 15:57:23;;;;;;;20.45;12.75;;;;;;;2.75;70.04;101118.69;1688789;84;21278;-56
2022/12/08 16:01:08;;;;;;;19.13;11.80;;;;;;;2.72;70.04;101105.88;1695353;83;21208;-57
2022/12/08 16:04:58;;;;;;;19.60;10.78;;;;;;;2.70;70.02;101099.22;1734076;82;21464;-56
2022/12/08 16:08:15;;;;;;;21.25;11.12;;;;;;;2.65;70.07;101101.86;1685983;83;21263;-57
2022/12/08 16:16:11;;;;;;;18.37;10.85;;;;;;;2.57;70.09;101111.86;1754082;81;21824;-57
2022/12/08 16:28:06;;;;;;;20.95;12.30;;;;;;;2.46;70.10;101108.17;1719486;83;21227;-60
2022/12/08 16:31:53;;;;;;;22.70;12.20;;;;;;;2.46;70.26;101113.58;1875676;76;22282;-57
2022/12/08 16:35:25;;;;;;;22.17;12.33;;;;;;;2.42;70.29;101117.48;1778189;79;21753;-60
2022/12/08 16:39:58;;;;;;;21.93;11.30;;;;;;;2.44;70.37;101119.09;1798312;79;21249;-59
2022/12/08 16:44:04;;;;;;;23.67;10.20;;;;;;;2.45;70.49;101118.61;1796497;78;21201;-60
2022/12/08 16:47:18;;;;;;;20.55;11.55;;;;;;;2.45;70.41;101129.42;1762219;80;21275;-60
2022/12/08 16:50:53;;;;;;;23.27;11.75;;;;;;;2.42;70.26;101137.27;1614271;86;21322;-56
2022/12/08 16:54:30;;;;;;;20.77;11.15;;;;;;;2.38;70.25;101131.67;1645485;85;21301;-60
2022/12/08 16:58:17;;;;;;;22.87;11.30;;;;;;;2.38;70.31;101126.78;1656371;85;21873;-61
2022/12/08 17:01:40;;;;;;;20.68;11.65;;;;;;;2.41;70.37;101122.52;1653453;85;21222;-60
2022/12/08 17:05:14;;;;;;;25.77;11.20;;;;;;;2.39;70.39;101116.34;1634843;85;21250;-60
2022/12/08 17:08:53;;;;;;;23.07;11.63;;;;;;;2.41;70.55;101118.46;1689032;83;21228;-55
2022/12/08 17:12:37;;;;;;;29.37;12.90;;;;;;;2.49;70.54;101112.04;1815596;74;22317;-57
2022/12/08 17:16:02;;;;;;;;;;;;;;;2.37;70.40;101100.72;1753414;78;21219;-57
2022/12/08 17:19:54;;;;;;;19.05;10.48;;;;;;;2.37;70.64;101102.95;1751345;78;20325;-60
2022/12/08 17:23:15;;;;;;;25.10;11.00;;;;;;;2.42;70.79;101095.39;1753422;79;21687;-60
2022/12/08 17:27:03;;;;;;;29.02;11.10;;;;;;;2.48;70.97;101088.67;1752297;80;21304;-56
2022/12/08 17:30:21;;;;;;;;;;;;;;;2.53;71.00;101087.87;1748284;78;21221;-56
2022/12/08 17:44:29;;;;;;;20.12;10.35;;;;;;;2.66;71.16;101067.13;1751070;79;22359;-56
2022/12/08 17:47:49;;;;;;;18.52;10.55;;;;;;;2.61;71.14;101070.16;1768284;77;21215;-56
2022/12/08 17:51:13;;;;;;;19.92;12.07;;;;;;;2.61;71.12;101063.87;1766975;80;21184;-56
2022/12/08 17:54:45;;;;;;;19.57;11.28;;;;;;;2.59;71.07;101067.16;1695370;82;21208;-57
2022/12/08 17:58:39;;;;;;;22.55;14.07;;;;;;;2.51;70.96;101063.66;1706179;77;21200;-60
2022/12/08 18:02:00;;;;;;;;;;;;;;;2.48;70.91;101057.60;1801899;78;21979;-60
2022/12/08 18:05:14;;;;;;;21.33;11.78;;;;;;;2.44;71.00;101063.70;1808474;78;20207;-59
2022/12/08 18:08:50;;;;;;;21.52;11.78;;;;;;;2.45;71.17;101057.82;1806933;78;21365;-60
2022/12/08 18:15:56;;;;;;;18.45;11.05;;;;;;;2.54;71.42;101066.14;1781395;79;21350;-60
2022/12/08 18:19:59;;;;;;;27.62;12.58;;;;;;;2.50;71.17;101067.83;1795789;79;21167;-60
2022/12/08 18:23:23;;;;;;;22.77;13.30;;;;;;;2.43;71.09;101071.44;1789374;78;21187;-57
2022/12/08 18:26:34;;;;;;;24.95;13.98;;;;;;;2.41;71.16;101066.63;1803134;79;21169;-59
2022/12/08 18:30:13;;;;;;;19.98;11.15;;;;;;;2.42;71.16;101066.14;1804211;77;21782;-59
2022/12/08 18:33:53;;;;;;;21.07;11.85;;;;;;;2.49;71.28;101066.11;1866551;76;22296;-57
2022/12/08 18:37:41;;;;;;;15.65;10.25;;;;;;;2.48;71.42;101072.47;1805288;79;21354;-61
2022/12/08 18:41:32;;;;;;;15.83;10.13;;;;;;;2.55;71.40;101063.81;1881258;76;22214;-57
2022/12/08 18:45:08;;;;;;;16.77;10.45;;;;;;;2.51;71.42;101060.95;1809510;78;21414;-59
2022/12/08 18:48:42;;;;;;;16.45;10.18;;;;;;;2.62;71.53;101062.89;1873506;76;22277;-60
2022/12/08 18:52:13;;;;;;;;;;;;;;;2.58;71.61;101070.85;1810673;79;21720;-60
2022/12/08 18:56:00;;;;;;;15.32;9.98;;;;;;;2.59;71.57;101069.39;1794404;79;20251;-59
2022/12/08 19:04:01;;;;;;;15.40;9.80;;;;;;;2.64;71.64;101070.41;1811393;78;21171;-56
2022/12/08 19:07:24;;;;;;;15.78;9.80;;;;;;;2.64;71.72;101059.59;1811507;78;21159;-59
2022/12/08 19:14:55;;;;;;;13.85;11.35;;;;;;;2.71;71.59;101059.55;1874933;73;27963;-56
2022/12/08 19:19:00;;;;;;;14.85;10.10;;;;;;;2.75;71.58;101051.59;1844485;75;21170;-56
2022/12/08 19:26:05;;;;;;;13.32;9.08;;;;;;;2.75;71.41;101042.12;1876953;76;22257;-60
2022/12/08 19:29:30;;;;;;;14.28;8.68;;;;;;;2.68;71.51;101046.27;1748619;81;21284;-60
2022/12/08 19:32:54;;;;;;;12.53;9.15;;;;;;;2.72;71.64;101032.89;1804565;79;22280;-61
2022/12/08 19:36:56;;;;;;;13.90;8.95;;;;;;;2.74;71.74;101029.09;1801259;78;21796;-61
2022/12/08 19:48:30;;;;;;;13.53;9.10;;;;;;;2.79;71.81;101039.59;1796051;79;21704;-57
2022/12/08 19:52:08;;;;;;;15.03;9.48;;;;;;;2.78;71.79;101041.42;1786650;79;21217;-61
2022/12/08 19:55:22;;;;;;;13.75;9.48;;;;;;;2.79;71.82;101043.66;1742592;79;21206;-61
2022/12/08 20:07:20;;;;;;;15.08;9.80;;;;;;;2.81;71.90;101041.20;1698834;82;21264;-61
2022/12/08 20:11:20;;;;;;;13.65;9.18;;;;;;;2.81;71.96;101042.55;1684461;84;21217;-57
2022/12/08 20:14:24;;;;;;;15.28;10.38;;;;;;;2.79;71.84;101042.30;1699507;84;21252;-61